Terminal Aerodrome Forecast
Issued by NWS Wilmington, OH

Current Version | Previous Version | Graphics & Text | Print | Product List | Glossary On
Versions: 1 2 3 4 5 6 7 8 9 10 11 12 13 14 15 16 17 18 19 20 21 22
000
FTUS41 KILN 260500 RRA
TAFCMH
TAF
KCMH 260545Z 2606/2706 VRB05KT P6SM SCT050 BKN150
     FM261000 VRB05KT 4SM -SHRA BR OVC040
     FM261200 09007KT 3SM -SHRA BR OVC015
     FM261400 33012G22KT 2SM -SHRA BR OVC010
     FM262100 32010G20KT 5SM BR VCSH BKN025
     FM262300 32014KT P6SM SCT040 BKN100=

USA.gov is the U.S. government's official web portal to all federal, state and local government web resources and services.